Chandler, Minnesota
Current Conditions -  °F | °C
As of 10:16 PM on Thursday 27 Nov 2014 (Local Time) from KDVP Reporting Station
Overcast Overcast  
Wind Chill: -6°   Ceiling: 9000
Heat Index: 10°   Visibility: 10mi
Dew Point:   Wind: 14mph
Humidity: 79%   Direction: 140°SE
Pressure: 30.1"   Gusts: NA
Location:  43.93°N, 95.95°W
Report Text: KDVP 280416Z AUTO 14012KT 10SM OVC090 M12/M15 A3010 RMK AO2 T11211151
Loading
Personal Weather Stations






























Interactive Weather Map New forecast layout! Learn more

10-Day Weather Forecast

Advertisements
Track Severe Weather on mobile